Time;durP1;ratioP1;P1;durP2;ratioP2;P2;SDS_P1;SDS_P2;PMS_P1;PMS_P2;Temp;Humidity;BMP_temperature;BMP_pressure;BME280_temperature;BME280_humidity;BME280_pressure;Samples;Min_cycle;Max_cycle;Signal;HPM_P1;HPM_P2
2023/01/01 00:01:08;;;;;;;31.35;17.88;;;14.00;99.90;;;;;;5049325;28;20033;-62
2023/01/01 00:03:34;;;;;;;23.35;14.25;;;13.90;99.90;;;;;;5049189;28;20410;-62
2023/01/01 00:06:08;;;;;;;31.23;14.25;;;13.90;99.90;;;;;;5049966;28;20037;-62
2023/01/01 00:08:35;;;;;;;24.77;12.68;;;13.90;99.90;;;;;;5050006;28;20044;-61
2023/01/01 00:11:01;;;;;;;;;;;13.80;99.90;;;;;;5050726;28;20029;-62
2023/01/01 00:13:26;;;;;;;23.70;13.43;;;13.80;99.90;;;;;;5049421;28;19948;-62
2023/01/01 00:15:52;;;;;;;20.85;12.23;;;13.90;99.90;;;;;;5046610;28;20076;-62
2023/01/01 00:18:18;;;;;;;28.10;14.32;;;13.80;99.90;;;;;;5049208;28;20187;-62
2023/01/01 00:20:43;;;;;;;23.20;12.55;;;13.80;99.90;;;;;;5049021;28;20482;-62
2023/01/01 00:23:09;;;;;;;30.85;15.48;;;13.80;99.90;;;;;;5049173;28;20039;-62
2023/01/01 00:25:34;;;;;;;37.20;14.57;;;13.80;99.90;;;;;;5049012;28;20410;-62
2023/01/01 00:28:00;;;;;;;22.57;13.00;;;13.80;99.90;;;;;;5043595;28;20048;-62
2023/01/01 00:30:26;;;;;;;18.73;12.77;;;13.80;99.90;;;;;;5048202;28;20295;-62
2023/01/01 00:32:51;;;;;;;23.42;11.52;;;13.80;99.90;;;;;;5047196;28;20279;-63
2023/01/01 00:35:17;;;;;;;23.13;12.00;;;13.80;99.90;;;;;;5048831;28;20037;-63
2023/01/01 00:37:43;;;;;;;20.90;9.75;;;13.80;99.90;;;;;;5047277;28;20049;-62
2023/01/01 00:40:09;;;;;;;;;;;13.80;99.90;;;;;;5049169;28;20505;-64
2023/01/01 00:42:38;;;;;;;23.73;12.10;;;13.80;99.90;;;;;;5049591;28;19917;-64
2023/01/01 00:45:05;;;;;;;30.80;13.07;;;13.80;99.90;;;;;;5035525;28;20044;-62
2023/01/01 00:47:31;;;;;;;23.90;13.90;;;13.80;99.90;;;;;;5047711;28;20048;-62
2023/01/01 00:49:56;;;;;;;25.02;13.35;;;13.80;99.90;;;;;;5047059;28;20040;-63
2023/01/01 00:52:22;;;;;;;24.67;13.40;;;13.80;99.90;;;;;;5047869;28;20033;-62
2023/01/01 00:54:47;;;;;;;26.25;13.90;;;13.80;99.90;;;;;;5049310;28;20041;-63
2023/01/01 00:57:13;;;;;;;26.05;14.07;;;13.80;99.90;;;;;;5049526;28;20037;-62
2023/01/01 00:59:38;;;;;;;21.83;13.02;;;13.80;99.90;;;;;;5049603;28;20123;-62
2023/01/01 01:02:04;;;;;;;24.77;13.57;;;13.80;99.90;;;;;;5050490;28;20052;-64
2023/01/01 01:04:30;;;;;;;26.52;13.68;;;13.70;99.90;;;;;;5049692;28;20059;-63
2023/01/01 01:06:55;;;;;;;24.27;14.80;;;13.70;99.90;;;;;;5050062;28;20037;-62
2023/01/01 01:09:21;;;;;;;24.63;14.37;;;13.70;99.90;;;;;;5050212;28;20037;-61
2023/01/01 01:11:47;;;;;;;21.20;12.93;;;13.70;99.90;;;;;;5050784;28;20284;-62
2023/01/01 01:14:13;;;;;;;27.25;14.10;;;13.70;99.90;;;;;;5048855;28;20453;-62
2023/01/01 01:16:39;;;;;;;21.35;13.40;;;13.70;99.90;;;;;;5050108;28;20048;-62
2023/01/01 01:19:05;;;;;;;21.85;13.63;;;13.70;99.90;;;;;;5050278;28;20045;-63
2023/01/01 01:21:33;;;;;;;19.75;12.60;;;13.70;99.90;;;;;;5049547;28;20047;-62
2023/01/01 01:24:00;;;;;;;26.17;13.68;;;13.70;99.90;;;;;;5048828;28;20040;-62
2023/01/01 01:26:29;;;;;;;22.98;13.05;;;13.70;99.90;;;;;;5050091;28;20036;-62
2023/01/01 01:28:55;;;;;;;24.38;13.50;;;13.80;99.90;;;;;;5050029;28;20029;-62
2023/01/01 01:31:22;;;;;;;29.08;15.93;;;13.80;99.90;;;;;;5050371;28;20038;-61
2023/01/01 01:33:48;;;;;;;21.77;12.63;;;13.80;99.90;;;;;;5049584;28;20049;-62
2023/01/01 01:36:15;;;;;;;23.42;13.38;;;13.90;99.90;;;;;;5049577;28;20076;-62
2023/01/01 01:38:41;;;;;;;25.88;13.70;;;13.90;99.90;;;;;;5049646;28;20499;-62
2023/01/01 01:41:08;;;;;;;22.05;13.75;;;14.00;99.90;;;;;;5049569;28;20066;-63
2023/01/01 01:43:33;;;;;;;20.60;13.20;;;14.00;99.90;;;;;;5047802;28;20045;-62
2023/01/01 01:46:08;;;;;;;23.63;14.57;;;14.00;99.90;;;;;;5049771;28;20041;-63
2023/01/01 01:48:39;;;;;;;23.75;14.45;;;14.00;99.90;;;;;;5049427;28;20036;-62
2023/01/01 01:51:05;;;;;;;24.25;15.05;;;14.00;99.90;;;;;;5049863;28;20147;-63
2023/01/01 01:53:34;;;;;;;21.52;15.02;;;14.00;99.90;;;;;;5048698;28;20557;-62
2023/01/01 01:56:07;;;;;;;30.58;15.55;;;14.00;99.90;;;;;;5049400;28;20140;-63
2023/01/01 01:58:33;;;;;;;22.33;13.90;;;14.00;99.90;;;;;;5049747;28;20041;-62
2023/01/01 02:00:59;;;;;;;32.40;17.65;;;13.90;99.90;;;;;;5049979;28;20395;-62
2023/01/01 02:03:43;;;;;;;23.33;14.70;;;13.90;99.90;;;;;;5048331;28;20406;-62
2023/01/01 02:06:10;;;;;;;35.72;18.33;;;13.90;99.90;;;;;;5049832;28;20090;-62
2023/01/01 02:08:37;;;;;;;25.70;14.68;;;13.80;99.90;;;;;;5049369;28;20116;-63
2023/01/01 02:11:02;;;;;;;26.40;15.40;;;13.80;99.90;;;;;;5049842;28;20494;-61
2023/01/01 02:13:29;;;;;;;20.58;14.52;;;13.80;99.90;;;;;;5049028;28;20029;-63
2023/01/01 02:16:33;;;;;;;23.70;14.05;;;13.80;99.90;;;;;;5049636;28;20124;-62
2023/01/01 02:19:31;;;;;;;24.55;15.75;;;13.90;99.90;;;;;;5049265;28;20119;-62
2023/01/01 02:22:24;;;;;;;23.58;13.75;;;13.90;99.90;;;;;;5049641;28;20505;-61
2023/01/01 02:25:14;;;;;;;20.63;12.68;;;13.80;99.90;;;;;;5048223;28;20045;-61
2023/01/01 02:27:43;;;;;;;21.05;11.95;;;13.80;99.90;;;;;;5049228;28;20037;-62
2023/01/01 02:30:10;;;;;;;18.33;11.40;;;13.80;99.90;;;;;;5049176;28;20052;-61
2023/01/01 02:32:48;;;;;;;22.45;10.73;;;13.80;99.90;;;;;;5050029;28;20037;-61
2023/01/01 02:35:34;;;;;;;19.10;9.75;;;13.80;99.90;;;;;;5052337;28;20091;-62
2023/01/01 02:38:08;;;;;;;21.80;11.38;;;13.80;99.90;;;;;;5051881;28;20569;-63
2023/01/01 02:40:37;;;;;;;15.27;8.25;;;13.80;99.90;;;;;;5052770;28;20048;-62
2023/01/01 02:43:03;;;;;;;13.57;7.28;;;13.80;99.90;;;;;;5051729;28;20094;-62
2023/01/01 02:45:29;;;;;;;;;;;13.80;99.90;;;;;;5042004;28;20073;-63
2023/01/01 02:47:54;;;;;;;18.60;7.57;;;13.80;99.90;;;;;;5052809;28;19959;-61
2023/01/01 02:50:24;;;;;;;11.43;6.67;;;13.80;99.90;;;;;;5052035;28;20037;-62
2023/01/01 02:53:07;;;;;;;17.85;6.60;;;13.80;99.90;;;;;;5048315;28;20406;-62
2023/01/01 02:56:10;;;;;;;11.20;5.20;;;13.80;99.90;;;;;;5045128;28;20520;-63
2023/01/01 03:01:39;;;;;;;13.27;4.85;;;13.80;99.90;;;;;;5052965;28;20041;-62
2023/01/01 03:04:25;;;;;;;11.73;3.95;;;13.80;99.90;;;;;;5052287;28;20045;-62
2023/01/01 03:06:59;;;;;;;11.00;4.38;;;13.80;99.90;;;;;;5050259;28;20521;-63
2023/01/01 03:09:58;;;;;;;6.65;3.45;;;13.80;99.90;;;;;;5053194;28;20044;-62
2023/01/01 03:12:38;;;;;;;;;;;13.80;99.90;;;;;;5033472;28;20116;-62
2023/01/01 03:15:13;;;;;;;7.72;2.97;;;13.80;99.90;;;;;;5050179;28;20380;-62
2023/01/01 03:17:52;;;;;;;10.60;3.25;;;13.80;99.90;;;;;;5052586;28;20087;-63
2023/01/01 03:20:23;;;;;;;9.32;2.45;;;13.80;99.90;;;;;;5052743;28;20047;-62
2023/01/01 03:22:51;;;;;;;9.02;2.58;;;13.80;99.90;;;;;;5052216;28;20064;-63
2023/01/01 03:25:24;;;;;;;7.63;2.30;;;13.90;99.90;;;;;;5050936;28;20402;-62
2023/01/01 03:27:56;;;;;;;8.80;2.30;;;13.90;99.90;;;;;;5051120;28;20028;-61
2023/01/01 03:30:23;;;;;;;11.68;2.58;;;13.90;99.90;;;;;;5052626;28;20056;-61
2023/01/01 03:33:00;;;;;;;5.75;1.58;;;14.00;99.90;;;;;;5052354;28;20072;-62
2023/01/01 03:35:39;;;;;;;10.07;2.85;;;14.00;99.90;;;;;;5052437;28;20069;-62
2023/01/01 03:38:12;;;;;;;12.30;1.85;;;14.00;99.90;;;;;;5049033;28;20033;-63
2023/01/01 03:40:38;;;;;;;7.38;1.85;;;14.00;99.90;;;;;;5052017;28;20033;-62
2023/01/01 03:43:08;;;;;;;;;;;14.00;99.90;;;;;;5051803;28;20045;-62
2023/01/01 03:45:39;;;;;;;7.05;1.45;;;14.00;99.90;;;;;;5051837;28;19923;-62
2023/01/01 03:48:05;;;;;;;9.82;1.85;;;14.00;99.90;;;;;;5050789;28;20029;-63
2023/01/01 03:51:01;;;;;;;6.15;2.03;;;14.00;99.90;;;;;;5052347;28;20090;-61
2023/01/01 03:53:39;;;;;;;8.05;1.42;;;14.10;99.90;;;;;;5017954;28;20054;-61
2023/01/01 03:56:34;;;;;;;11.38;1.20;;;14.10;99.90;;;;;;5051849;28;20028;-61
2023/01/01 03:59:16;;;;;;;4.22;1.42;;;14.10;99.90;;;;;;5050316;28;20498;-62
2023/01/01 04:01:47;;;;;;;11.55;1.75;;;14.20;99.90;;;;;;5050907;28;20055;-62
2023/01/01 04:04:14;;;;;;;5.63;2.10;;;14.20;99.90;;;;;;5042837;28;20042;-62
2023/01/01 04:06:40;;;;;;;5.82;1.40;;;14.20;99.90;;;;;;5035672;28;20033;-61
2023/01/01 04:09:11;;;;;;;7.40;2.10;;;14.20;99.90;;;;;;5052094;28;20124;-63
2023/01/01 04:14:36;;;;;;;10.52;1.90;;;14.20;99.90;;;;;;5030840;28;20132;-61
2023/01/01 04:17:03;;;;;;;7.63;1.42;;;14.30;99.90;;;;;;5033353;28;20038;-62
2023/01/01 04:19:29;;;;;;;8.85;1.20;;;14.30;99.90;;;;;;5050456;28;20049;-62
2023/01/01 04:21:55;;;;;;;7.10;1.35;;;14.30;99.90;;;;;;5050755;28;20067;-61
2023/01/01 04:24:22;;;;;;;6.88;0.95;;;14.30;99.90;;;;;;5049972;28;20041;-61
2023/01/01 04:26:49;;;;;;;8.93;0.90;;;14.40;99.90;;;;;;5051291;28;20044;-62
2023/01/01 04:29:15;;;;;;;8.20;1.27;;;14.40;99.90;;;;;;5051419;28;20036;-61
2023/01/01 04:31:40;;;;;;;5.45;1.40;;;14.40;99.90;;;;;;5051467;28;20120;-62
2023/01/01 04:34:06;;;;;;;6.80;1.58;;;14.40;99.90;;;;;;5050230;28;20440;-64
2023/01/01 04:36:32;;;;;;;9.18;1.35;;;14.40;99.90;;;;;;5050590;28;20037;-62
2023/01/01 04:38:58;;;;;;;8.02;1.50;;;14.40;99.90;;;;;;5050404;28;20075;-62
2023/01/01 04:41:23;;;;;;;5.13;1.38;;;14.40;99.90;;;;;;5050681;28;20064;-62
2023/01/01 04:43:49;;;;;;;6.47;1.00;;;14.40;99.90;;;;;;5050085;28;20037;-62
2023/01/01 04:46:16;;;;;;;7.38;1.10;;;14.40;99.90;;;;;;5051073;28;20043;-62
2023/01/01 04:48:42;;;;;;;6.00;1.52;;;14.40;99.90;;;;;;5049985;28;20040;-64
2023/01/01 04:51:09;;;;;;;6.50;1.60;;;14.40;99.90;;;;;;5045155;28;20033;-63
2023/01/01 04:53:35;;;;;;;4.72;1.85;;;14.40;99.90;;;;;;5049584;28;20060;-62
2023/01/01 04:56:11;;;;;;;3.95;1.02;;;14.40;99.90;;;;;;5047953;28;20052;-61
2023/01/01 04:58:37;;;;;;;6.40;1.10;;;14.50;99.90;;;;;;5082087;28;20375;-62
2023/01/01 05:01:04;;;;;;;6.70;0.88;;;14.50;99.90;;;;;;5050337;28;20040;-62
2023/01/01 05:03:30;;;;;;;9.20;1.05;;;14.40;99.90;;;;;;5048747;28;20514;-62
2023/01/01 05:06:05;;;;;;;2.33;0.75;;;14.50;99.90;;;;;;5050343;28;20144;-62
2023/01/01 05:08:36;;;;;;;10.13;1.23;;;14.50;99.90;;;;;;5048440;28;20045;-62
2023/01/01 05:11:05;;;;;;;12.60;1.38;;;14.50;99.90;;;;;;5049898;28;20047;-61
2023/01/01 05:13:30;;;;;;;6.22;0.65;;;14.40;99.90;;;;;;5039033;28;20122;-62
2023/01/01 05:15:56;;;;;;;6.40;1.02;;;14.40;99.90;;;;;;5048275;28;20510;-62
2023/01/01 05:18:22;;;;;;;6.93;1.05;;;14.40;99.90;;;;;;5050067;28;20094;-62
2023/01/01 05:20:47;;;;;;;2.45;0.73;;;14.40;99.90;;;;;;5049565;28;20049;-62
2023/01/01 05:23:16;;;;;;;4.95;0.68;;;14.30;99.90;;;;;;5049541;28;20381;-61
2023/01/01 05:25:41;;;;;;;2.25;0.38;;;14.30;99.90;;;;;;5050047;28;20055;-61
2023/01/01 05:28:07;;;;;;;3.95;0.93;;;14.30;99.90;;;;;;5048958;28;20358;-61
2023/01/01 05:30:32;;;;;;;3.47;0.68;;;14.20;99.90;;;;;;5049779;28;20033;-61
2023/01/01 05:32:58;;;;;;;6.13;0.77;;;14.20;99.90;;;;;;5049416;28;20147;-62
2023/01/01 05:35:24;;;;;;;5.13;0.50;;;14.10;99.90;;;;;;5049703;28;20270;-61
2023/01/01 05:37:50;;;;;;;3.40;0.47;;;14.10;99.90;;;;;;5050102;28;20036;-62
2023/01/01 05:40:16;;;;;;;3.47;0.43;;;14.10;99.90;;;;;;5050013;28;20051;-63
2023/01/01 05:42:42;;;;;;;3.13;0.60;;;14.10;99.90;;;;;;5049874;28;20033;-61
2023/01/01 05:45:08;;;;;;;3.50;0.52;;;14.00;99.90;;;;;;5048433;28;20079;-61
2023/01/01 05:47:33;;;;;;;4.53;0.60;;;14.00;99.90;;;;;;5049609;28;20068;-61
2023/01/01 05:49:59;;;;;;;3.63;0.47;;;14.00;99.90;;;;;;5049810;28;20064;-62
2023/01/01 05:52:24;;;;;;;2.10;0.43;;;13.90;99.90;;;;;;5049781;28;20032;-62
2023/01/01 05:54:50;;;;;;;5.03;0.60;;;13.80;99.90;;;;;;5048916;28;20059;-62
2023/01/01 05:57:15;;;;;;;2.97;0.40;;;13.80;99.90;;;;;;5049099;28;20315;-62
2023/01/01 05:59:41;;;;;;;4.40;0.40;;;13.80;99.90;;;;;;5049852;28;20040;-61
2023/01/01 06:02:06;;;;;;;4.97;0.60;;;13.70;99.90;;;;;;5047871;28;20643;-61
2023/01/01 06:04:32;;;;;;;3.87;0.50;;;13.70;99.90;;;;;;5048416;28;20190;-62
2023/01/01 06:06:57;;;;;;;6.40;0.70;;;13.60;99.90;;;;;;5049021;28;20383;-62
2023/01/01 06:09:23;;;;;;;4.23;0.33;;;13.60;99.90;;;;;;5049924;28;20395;-62
2023/01/01 06:11:48;;;;;;;3.50;0.67;;;13.60;99.90;;;;;;5049212;28;20283;-62
2023/01/01 06:14:14;;;;;;;5.47;1.50;;;13.60;99.90;;;;;;5048324;28;20044;-62
2023/01/01 06:16:40;;;;;;;6.63;0.73;;;13.50;99.90;;;;;;5048838;28;20055;-62
2023/01/01 06:19:05;;;;;;;5.10;1.40;;;13.50;99.90;;;;;;5047834;28;20292;-63
2023/01/01 06:21:31;;;;;;;4.70;0.32;;;13.50;99.90;;;;;;5048719;28;20306;-62
2023/01/01 06:23:58;;;;;;;4.07;0.52;;;13.50;99.90;;;;;;5048190;28;20179;-62
2023/01/01 06:26:27;;;;;;;7.00;0.40;;;13.40;99.90;;;;;;5048444;28;20045;-62
2023/01/01 06:28:54;;;;;;;5.78;0.57;;;13.40;99.90;;;;;;5046194;28;20043;-63
2023/01/01 06:31:21;;;;;;;6.60;1.27;;;13.30;99.90;;;;;;5049287;28;20047;-62
2023/01/01 06:33:49;;;;;;;4.80;0.57;;;13.30;99.90;;;;;;5048582;28;20048;-61
2023/01/01 06:36:17;;;;;;;6.15;1.05;;;13.30;99.90;;;;;;5049385;28;20044;-61
2023/01/01 06:38:46;;;;;;;3.92;0.75;;;13.30;99.90;;;;;;5048999;28;20116;-61
2023/01/01 06:41:14;;;;;;;5.43;0.75;;;13.30;99.90;;;;;;5048890;28;20119;-62
2023/01/01 06:43:40;;;;;;;5.65;1.92;;;13.30;99.90;;;;;;5047585;28;20051;-62
2023/01/01 06:46:11;;;;;;;3.65;1.40;;;13.20;99.90;;;;;;5049071;28;20429;-62
2023/01/01 06:48:37;;;;;;;3.97;0.93;;;13.30;99.90;;;;;;5048745;28;20533;-61
2023/01/01 06:51:08;;;;;;;5.00;1.07;;;13.20;99.90;;;;;;5049542;28;20061;-62
2023/01/01 06:53:34;;;;;;;8.48;1.00;;;13.20;99.90;;;;;;5047197;28;20360;-62
2023/01/01 06:55:59;;;;;;;4.30;0.68;;;13.20;99.90;;;;;;5048189;28;20581;-61
2023/01/01 06:58:25;;;;;;;4.70;1.15;;;13.10;99.90;;;;;;5048370;28;20041;-62
2023/01/01 07:00:51;;;;;;;7.55;1.23;;;13.10;99.90;;;;;;5049071;28;20452;-62
2023/01/01 07:03:16;;;;;;;1.93;0.60;;;13.10;99.90;;;;;;5048234;28;20037;-62
2023/01/01 07:05:42;;;;;;;5.87;0.50;;;13.10;99.90;;;;;;5048775;28;20041;-61
2023/01/01 07:08:07;;;;;;;6.18;0.98;;;13.10;99.90;;;;;;5046395;28;20697;-62
2023/01/01 07:10:33;;;;;;;3.10;0.82;;;13.10;99.90;;;;;;5048370;28;20037;-61
2023/01/01 07:12:59;;;;;;;3.40;0.50;;;13.20;99.90;;;;;;5048494;28;20116;-61
2023/01/01 07:15:25;;;;;;;;;;;13.20;99.90;;;;;;5049051;28;20040;-63
2023/01/01 07:17:51;;;;;;;6.47;0.85;;;13.10;99.90;;;;;;5048093;28;19924;-61
2023/01/01 07:20:16;;;;;;;3.60;0.40;;;13.10;99.90;;;;;;5052064;28;20681;-62
2023/01/01 07:22:42;;;;;;;5.87;0.60;;;13.10;99.90;;;;;;5052311;28;20656;-62
2023/01/01 07:25:12;;;;;;;6.20;0.60;;;13.10;99.90;;;;;;5050685;28;20525;-63
2023/01/01 07:27:38;;;;;;;13.27;1.50;;;13.10;99.90;;;;;;5052183;28;20032;-62
2023/01/01 07:30:04;;;;;;;6.40;0.57;;;13.10;99.90;;;;;;5052140;28;20048;-62
2023/01/01 07:32:30;;;;;;;7.60;1.00;;;13.10;99.90;;;;;;5052227;28;20418;-62
2023/01/01 07:34:55;;;;;;;2.17;0.40;;;13.10;99.90;;;;;;5048651;28;20041;-61
2023/01/01 07:37:24;;;;;;;6.37;1.03;;;13.10;99.90;;;;;;5060646;28;20037;-61
2023/01/01 07:39:50;;;;;;;3.47;0.40;;;13.10;99.90;;;;;;5050290;28;20090;-62
2023/01/01 07:42:16;;;;;;;2.97;0.28;;;13.10;99.90;;;;;;5051761;28;20518;-61
2023/01/01 07:44:41;;;;;;;8.03;0.50;;;13.10;99.90;;;;;;5050707;28;20041;-61
2023/01/01 07:47:21;;;;;;;3.53;0.50;;;13.00;99.90;;;;;;5051838;28;20128;-61
2023/01/01 07:49:46;;;;;;;3.92;0.75;;;13.00;99.90;;;;;;5051748;28;20513;-61
2023/01/01 07:52:12;;;;;;;4.07;0.80;;;13.00;99.90;;;;;;5051940;28;20037;-63
2023/01/01 07:54:37;;;;;;;5.00;1.02;;;13.00;99.90;;;;;;5050082;28;20283;-62
2023/01/01 07:57:03;;;;;;;6.60;0.57;;;13.00;99.90;;;;;;5051867;28;20120;-62
2023/01/01 07:59:28;;;;;;;2.07;0.40;;;12.90;99.90;;;;;;5051042;28;20075;-61
2023/01/01 08:01:54;;;;;;;5.53;0.80;;;13.00;99.90;;;;;;5051328;28;20502;-61
2023/01/01 08:04:20;;;;;;;7.93;0.60;;;13.00;99.90;;;;;;5050189;28;20821;-61
2023/01/01 08:06:45;;;;;;;7.43;0.40;;;13.00;99.90;;;;;;5050182;28;20039;-61
2023/01/01 08:09:11;;;;;;;3.33;0.40;;;13.00;99.90;;;;;;5050954;28;20294;-62
2023/01/01 08:11:36;;;;;;;9.82;0.77;;;13.00;99.90;;;;;;5050817;28;20044;-61
2023/01/01 08:14:02;;;;;;;2.73;0.40;;;12.90;99.90;;;;;;5050616;28;20048;-61
2023/01/01 08:16:27;;;;;;;6.27;0.67;;;12.90;99.90;;;;;;5048270;28;20037;-62
2023/01/01 08:18:53;;;;;;;7.57;2.15;;;12.90;99.90;;;;;;5050270;28;20425;-63
2023/01/01 08:21:18;;;;;;;6.50;1.15;;;12.80;99.90;;;;;;5049733;28;20037;-62
2023/01/01 08:23:44;;;;;;;4.23;0.40;;;12.80;99.90;;;;;;5049136;28;20041;-61
2023/01/01 08:26:15;;;;;;;4.10;0.33;;;12.80;99.90;;;;;;5050131;28;20284;-61
2023/01/01 08:28:41;;;;;;;3.75;0.77;;;12.80;99.90;;;;;;5050397;28;20041;-62
2023/01/01 08:31:06;;;;;;;6.70;0.98;;;12.80;99.90;;;;;;5049998;28;20517;-61
2023/01/01 08:33:32;;;;;;;9.38;2.85;;;12.80;99.90;;;;;;5050069;28;20074;-62
2023/01/01 08:35:58;;;;;;;9.98;1.27;;;12.70;99.90;;;;;;5050096;28;20055;-61
2023/01/01 08:38:24;;;;;;;4.32;0.55;;;12.70;99.90;;;;;;5050684;28;20041;-62
2023/01/01 08:40:49;;;;;;;2.38;0.50;;;12.70;99.90;;;;;;5051038;28;21765;-64
2023/01/01 08:43:15;;;;;;;9.23;1.47;;;12.70;99.90;;;;;;5050263;28;20051;-62
2023/01/01 08:45:40;;;;;;;3.05;0.32;;;12.70;99.90;;;;;;5050785;28;20072;-62
2023/01/01 08:48:06;;;;;;;3.63;0.30;;;12.70;99.90;;;;;;5042264;28;20045;-62
2023/01/01 08:50:31;;;;;;;3.40;0.40;;;12.70;99.90;;;;;;5051255;28;20037;-63
2023/01/01 08:52:58;;;;;;;9.13;1.80;;;12.60;99.90;;;;;;5049999;28;20124;-61
2023/01/01 08:55:23;;;;;;;5.05;0.63;;;12.60;99.90;;;;;;5050328;28;20044;-62
2023/01/01 08:57:49;;;;;;;6.03;1.08;;;12.60;99.90;;;;;;5049888;28;20025;-62
2023/01/01 09:00:15;;;;;;;10.10;0.43;;;12.60;99.90;;;;;;5050711;28;20040;-62
2023/01/01 09:02:41;;;;;;;4.30;0.43;;;12.60;99.90;;;;;;5050231;28;20055;-61
2023/01/01 09:05:08;;;;;;;5.32;0.40;;;12.60;99.90;;;;;;5049434;28;20045;-62
2023/01/01 09:07:33;;;;;;;;;;;12.60;99.90;;;;;;5049847;28;20033;-62
2023/01/01 09:09:59;;;;;;;4.55;0.47;;;12.60;99.90;;;;;;5050794;28;20046;-62
2023/01/01 09:12:24;;;;;;;7.43;0.50;;;12.60;99.90;;;;;;5049993;28;20036;-63
2023/01/01 09:14:50;;;;;;;6.27;0.87;;;12.50;99.90;;;;;;5049665;28;20974;-62
2023/01/01 09:17:15;;;;;;;5.63;0.77;;;12.50;99.90;;;;;;5049145;28;20033;-62
2023/01/01 09:19:41;;;;;;;8.65;0.95;;;12.50;99.90;;;;;;5050210;28;20076;-62
2023/01/01 09:22:11;;;;;;;4.72;0.82;;;12.50;99.90;;;;;;5049663;28;20123;-60
2023/01/01 09:24:37;;;;;;;5.15;0.40;;;12.50;99.90;;;;;;5047424;28;20080;-61
2023/01/01 09:27:02;;;;;;;8.88;1.15;;;12.40;99.90;;;;;;5049935;28;20198;-62
2023/01/01 09:29:28;;;;;;;8.75;0.88;;;12.40;99.90;;;;;;5048822;28;20035;-61
2023/01/01 09:31:53;;;;;;;7.23;0.93;;;12.40;99.90;;;;;;5050264;28;20488;-61
2023/01/01 09:34:19;;;;;;;9.93;0.60;;;12.40;99.90;;;;;;5047921;28;20295;-62
2023/01/01 09:36:45;;;;;;;5.93;1.00;;;12.40;99.90;;;;;;5081441;28;20045;-62
2023/01/01 09:39:14;;;;;;;6.68;1.10;;;12.50;99.90;;;;;;5047699;28;20055;-61
2023/01/01 09:42:05;;;;;;;6.30;0.57;;;12.60;99.90;;;;;;5048044;28;20047;-62
2023/01/01 09:44:59;;;;;;;11.32;1.30;;;12.70;99.90;;;;;;5047819;28;20555;-61
2023/01/01 09:47:24;;;;;;;8.50;0.88;;;12.80;99.90;;;;;;5044021;28;20072;-61
2023/01/01 09:49:53;;;;;;;6.53;0.77;;;12.90;99.90;;;;;;5049766;28;20506;-61
2023/01/01 09:52:19;;;;;;;9.40;0.98;;;13.00;99.90;;;;;;5049051;28;20037;-61
2023/01/01 09:54:56;;;;;;;4.65;0.55;;;13.00;99.90;;;;;;5047369;28;20491;-59
2023/01/01 09:57:30;;;;;;;7.55;0.70;;;13.00;99.90;;;;;;5037378;28;20051;-62
2023/01/01 09:59:58;;;;;;;8.10;0.80;;;13.10;99.90;;;;;;5048596;28;20102;-62
2023/01/01 10:02:42;;;;;;;8.98;0.65;;;13.10;99.90;;;;;;5047307;28;20037;-62
2023/01/01 10:05:26;;;;;;;4.93;1.02;;;13.20;99.90;;;;;;5047175;28;20036;-61
2023/01/01 10:08:09;;;;;;;5.57;0.68;;;13.30;99.90;;;;;;5029234;28;20494;-60
2023/01/01 10:10:39;;;;;;;8.65;0.88;;;13.40;99.90;;;;;;5046690;28;20118;-59
2023/01/01 10:13:20;;;;;;;2.78;0.98;;;13.60;99.90;;;;;;5046599;28;20121;-59
2023/01/01 10:16:03;;;;;;;8.30;0.50;;;13.80;99.90;;;;;;5054649;28;20036;-60
2023/01/01 10:18:33;;;;;;;5.82;0.43;;;13.90;99.90;;;;;;5046221;28;20509;-59
2023/01/01 10:21:14;;;;;;;8.63;0.60;;;13.80;99.90;;;;;;5049220;28;20569;-60
2023/01/01 10:23:44;;;;;;;7.70;0.85;;;13.60;99.90;;;;;;5048682;28;20045;-59
2023/01/01 10:26:21;;;;;;;7.97;0.55;;;13.40;99.90;;;;;;5048815;28;20406;-60
2023/01/01 10:29:08;;;;;;;6.65;0.95;;;13.30;99.90;;;;;;5048792;28;20075;-59
2023/01/01 10:31:43;;;;;;;;;;;13.20;99.90;;;;;;5043825;28;20090;-60
2023/01/01 10:34:27;;;;;;;6.55;0.80;;;13.20;99.90;;;;;;5046980;28;19931;-61
2023/01/01 10:36:59;;;;;;;6.63;0.95;;;13.50;99.90;;;;;;5048049;28;20486;-60
2023/01/01 10:39:25;;;;;;;6.50;1.00;;;13.70;99.90;;;;;;5049095;28;20052;-60
2023/01/01 10:41:51;;;;;;;6.05;1.73;;;13.90;99.90;;;;;;5048708;28;20061;-61
2023/01/01 10:44:32;;;;;;;10.25;1.05;;;14.00;99.90;;;;;;5048103;28;20107;-59
2023/01/01 10:47:11;;;;;;;8.98;0.68;;;14.20;99.90;;;;;;5043427;28;20041;-61
2023/01/01 10:49:53;;;;;;;8.13;0.85;;;14.10;99.90;;;;;;5048613;28;20077;-60
2023/01/01 10:52:25;;;;;;;10.52;0.73;;;14.20;99.90;;;;;;5049150;28;20037;-60
2023/01/01 10:54:50;;;;;;;8.40;1.05;;;14.30;99.90;;;;;;5050617;28;20052;-61
2023/01/01 10:57:25;;;;;;;3.80;0.60;;;14.30;99.90;;;;;;5052343;28;20449;-59
2023/01/01 10:59:51;;;;;;;6.95;0.75;;;14.10;99.90;;;;;;5053036;28;20060;-60
2023/01/01 11:02:21;;;;;;;6.47;0.57;;;13.90;99.90;;;;;;5052745;28;20037;-61
2023/01/01 11:04:48;;;;;;;5.57;1.13;;;13.70;99.90;;;;;;5052111;28;20045;-58
2023/01/01 11:07:21;;;;;;;7.07;0.65;;;13.50;99.90;;;;;;5052822;28;20107;-60
2023/01/01 11:09:48;;;;;;;10.63;1.17;;;13.50;99.90;;;;;;5052325;28;20037;-60
2023/01/01 11:12:21;;;;;;;11.73;1.23;;;13.50;99.90;;;;;;5052566;28;20041;-60
2023/01/01 11:14:52;;;;;;;10.30;1.45;;;13.70;99.90;;;;;;5051528;28;20043;-60
2023/01/01 11:17:27;;;;;;;5.05;0.65;;;14.20;99.90;;;;;;5050823;28;20072;-60
2023/01/01 11:19:54;;;;;;;8.15;0.68;;;14.70;99.90;;;;;;5051958;28;20080;-61
2023/01/01 11:22:42;;;;;;;7.13;1.08;;;15.20;99.90;;;;;;5052158;28;20450;-60
2023/01/01 11:25:26;;;;;;;9.40;1.05;;;15.70;99.90;;;;;;5051066;28;20402;-61
2023/01/01 11:28:18;;;;;;;8.65;1.13;;;15.50;99.90;;;;;;5051763;28;20113;-61
2023/01/01 11:31:08;;;;;;;6.43;0.60;;;15.10;99.90;;;;;;5051869;28;20452;-60
2023/01/01 11:33:49;;;;;;;9.13;1.25;;;14.50;99.90;;;;;;5050208;28;20437;-58
2023/01/01 11:36:25;;;;;;;11.35;1.35;;;14.20;99.90;;;;;;5049752;28;20058;-60
2023/01/01 11:39:09;;;;;;;10.10;0.88;;;13.90;99.90;;;;;;5038299;28;20041;-60
2023/01/01 11:41:47;;;;;;;10.60;1.00;;;13.70;99.90;;;;;;5051173;28;20048;-60
2023/01/01 11:44:30;;;;;;;8.88;1.17;;;13.50;99.90;;;;;;5050904;28;20063;-60
2023/01/01 11:46:57;;;;;;;3.35;0.75;;;13.50;99.90;;;;;;5050769;28;20071;-60
2023/01/01 11:49:25;;;;;;;12.55;1.35;;;13.40;99.90;;;;;;5052337;28;20060;-58
2023/01/01 11:51:51;;;;;;;5.70;1.23;;;13.40;99.90;;;;;;5051344;28;20075;-61
2023/01/01 11:54:34;;;;;;;9.65;1.40;;;13.40;99.90;;;;;;5050693;28;20713;-60
2023/01/01 11:57:11;;;;;;;8.82;0.85;;;13.20;99.90;;;;;;5050715;28;20044;-60
2023/01/01 11:59:49;;;;;;;9.77;0.85;;;13.20;99.90;;;;;;5051360;28;20041;-57
2023/01/01 12:02:30;;;;;;;15.93;2.03;;;13.20;99.90;;;;;;5051135;28;20053;-62
2023/01/01 12:05:07;;;;;;;7.20;0.60;;;13.20;99.90;;;;;;5049695;28;20528;-61
2023/01/01 12:07:37;;;;;;;7.10;0.90;;;13.40;99.90;;;;;;5049627;28;20033;-60
2023/01/01 12:10:27;;;;;;;8.13;0.82;;;13.70;99.90;;;;;;5048522;28;20041;-60
2023/01/01 12:12:57;;;;;;;10.38;0.93;;;13.90;99.90;;;;;;5049651;28;20045;-59
2023/01/01 12:15:38;;;;;;;10.98;1.55;;;14.50;99.90;;;;;;5050721;28;20112;-59
2023/01/01 12:18:39;;;;;;;5.28;1.15;;;15.50;99.90;;;;;;5048276;28;20033;-60
2023/01/01 12:21:26;;;;;;;5.57;1.13;;;15.60;99.90;;;;;;5050159;28;20052;-61
2023/01/01 12:23:53;;;;;;;;;;;15.20;99.90;;;;;;5039823;28;20546;-61
2023/01/01 12:26:32;;;;;;;4.38;1.00;;;14.70;99.90;;;;;;5050642;28;20638;-60
2023/01/01 12:29:13;;;;;;;9.40;1.08;;;14.40;99.90;;;;;;5041221;28;20044;-61
2023/01/01 12:31:48;;;;;;;14.02;1.55;;;14.00;99.90;;;;;;5050745;28;20095;-60
2023/01/01 12:34:22;;;;;;;10.00;1.27;;;13.80;99.90;;;;;;5049984;28;20490;-60
2023/01/01 12:37:09;;;;;;;6.57;1.15;;;13.60;99.90;;;;;;5049695;28;20045;-60
2023/01/01 12:39:55;;;;;;;6.40;1.00;;;13.40;99.90;;;;;;5051277;28;20041;-59
2023/01/01 12:42:42;;;;;;;9.10;1.27;;;13.20;99.90;;;;;;5050139;28;20048;-60
2023/01/01 12:45:32;;;;;;;14.40;1.77;;;13.10;99.90;;;;;;5049337;28;20098;-60
2023/01/01 12:48:15;;;;;;;8.30;1.48;;;13.10;99.90;;;;;;5050316;28;20087;-58
2023/01/01 12:50:57;;;;;;;10.32;1.20;;;13.00;99.90;;;;;;5051023;28;20099;-60
2023/01/01 12:53:39;;;;;;;11.88;1.25;;;13.00;99.90;;;;;;5049075;28;20612;-61
2023/01/01 12:56:44;;;;;;;10.05;1.55;;;12.90;99.90;;;;;;5050496;28;20472;-61
2023/01/01 12:59:23;;;;;;;9.20;1.40;;;12.90;99.90;;;;;;5050104;28;20118;-58
2023/01/01 13:01:54;;;;;;;8.13;1.25;;;12.90;99.90;;;;;;5050601;28;20037;-61
2023/01/01 13:04:21;;;;;;;10.38;1.70;;;12.90;99.90;;;;;;5035832;28;20033;-62
2023/01/01 13:07:04;;;;;;;11.52;1.13;;;12.80;99.90;;;;;;5050649;28;20048;-60